Time;durP1;ratioP1;P1;durP2;ratioP2;P2;SDS_P1;SDS_P2;PMS_P1;PMS_P2;Temp;Humidity;BMP_temperature;BMP_pressure;BME280_temperature;BME280_humidity;BME280_pressure;Samples;Min_cycle;Max_cycle;Signal;HPM_P1;HPM_P2
2022/09/22 00:00:27;;;;;;;2.70;1.90;;;12.60;99.90;;;;;;5018163;28;20782;-56
2022/09/22 00:02:56;;;;;;;3.63;2.27;;;12.60;99.90;;;;;;5018598;28;20473;-56
2022/09/22 00:05:23;;;;;;;3.27;2.10;;;12.50;99.90;;;;;;5018079;28;20475;-56
2022/09/22 00:07:50;;;;;;;3.47;2.20;;;12.60;99.90;;;;;;5017920;28;20469;-56
2022/09/22 00:10:20;;;;;;;4.10;2.00;;;12.50;99.90;;;;;;5018370;28;20556;-56
2022/09/22 00:12:48;;;;;;;3.67;2.40;;;12.50;99.90;;;;;;5018411;28;20441;-54
2022/09/22 00:15:16;;;;;;;2.80;2.33;;;12.50;99.90;;;;;;5017750;28;20977;-53
2022/09/22 00:17:43;;;;;;;3.77;2.67;;;12.50;99.90;;;;;;5018252;28;20445;-54
2022/09/22 00:20:11;;;;;;;3.50;2.17;;;12.50;99.90;;;;;;5018367;28;20461;-53
2022/09/22 00:22:38;;;;;;;4.07;2.40;;;12.50;99.90;;;;;;5018230;28;20483;-52
2022/09/22 00:25:05;;;;;;;3.20;2.80;;;12.40;99.90;;;;;;5017651;28;20484;-56
2022/09/22 00:27:32;;;;;;;5.43;3.20;;;12.40;99.90;;;;;;5017838;28;20457;-57
2022/09/22 00:30:00;;;;;;;3.37;2.73;;;12.40;99.90;;;;;;5017883;28;20453;-53
2022/09/22 00:32:27;;;;;;;4.93;2.80;;;12.40;99.90;;;;;;5017832;28;20473;-57
2022/09/22 00:34:54;;;;;;;6.27;3.13;;;12.30;99.90;;;;;;5017934;28;20453;-52
2022/09/22 00:37:20;;;;;;;3.50;2.70;;;12.30;99.90;;;;;;5017869;28;20460;-55
2022/09/22 00:39:47;;;;;;;7.83;2.80;;;12.30;99.90;;;;;;5017704;28;20459;-56
2022/09/22 00:42:14;;;;;;;4.07;2.60;;;12.20;99.90;;;;;;5018135;28;20802;-55
2022/09/22 00:44:42;;;;;;;2.73;2.20;;;12.20;99.90;;;;;;5018462;28;20497;-56
2022/09/22 00:47:18;;;;;;;3.60;2.10;;;12.10;99.90;;;;;;5017856;28;20467;-57
2022/09/22 00:49:50;;;;;;;3.50;2.67;;;12.10;99.90;;;;;;5018246;28;20425;-56
2022/09/22 00:52:21;;;;;;;2.90;2.30;;;12.10;99.90;;;;;;5017770;28;20437;-57
2022/09/22 00:54:50;;;;;;;4.97;2.27;;;12.00;99.90;;;;;;5017933;28;20460;-57
2022/09/22 00:57:22;;;;;;;3.63;2.53;;;11.90;99.90;;;;;;5020678;28;20575;-56
2022/09/22 00:59:52;;;;;;;4.00;2.70;;;11.90;99.90;;;;;;5022003;28;20449;-57
2022/09/22 01:02:20;;;;;;;4.17;2.50;;;11.80;99.90;;;;;;5021824;28;20448;-56
2022/09/22 01:04:49;;;;;;;3.03;2.67;;;11.90;99.90;;;;;;5022148;28;20495;-57
2022/09/22 01:07:17;;;;;;;4.90;2.70;;;11.70;99.90;;;;;;5021922;28;20468;-52
2022/09/22 01:09:43;;;;;;;4.37;2.60;;;11.70;99.90;;;;;;5021725;28;20994;-54
2022/09/22 01:12:11;;;;;;;2.20;1.83;;;11.70;99.90;;;;;;5021944;28;20444;-56
2022/09/22 01:14:58;;;;;;;3.33;2.40;;;11.60;99.90;;;;;;5021818;28;20854;-53
2022/09/22 01:17:38;;;;;;;3.70;2.53;;;11.60;99.90;;;;;;5021308;28;20449;-56
2022/09/22 01:20:32;;;;;;;3.63;2.63;;;11.50;99.90;;;;;;5021462;28;20429;-54
2022/09/22 01:23:23;;;;;;;5.60;3.03;;;11.50;99.90;;;;;;5021978;28;20441;-56
2022/09/22 01:26:22;;;;;;;3.93;2.70;;;11.50;99.90;;;;;;5021961;28;20433;-57
2022/09/22 01:29:07;;;;;;;3.60;2.60;;;11.40;99.90;;;;;;4967796;28;20531;-57
2022/09/22 01:31:44;;;;;;;5.03;3.10;;;11.40;99.90;;;;;;5021644;28;20426;-56
2022/09/22 01:34:18;;;;;;;4.67;2.73;;;11.30;99.90;;;;;;5021314;28;20448;-53
2022/09/22 01:36:56;;;;;;;3.20;2.60;;;11.30;99.90;;;;;;5021183;28;20902;-52
2022/09/22 01:39:28;;;;;;;3.13;2.53;;;11.30;99.90;;;;;;5021462;28;20480;-56
2022/09/22 01:42:00;;;;;;;6.00;3.40;;;11.30;99.90;;;;;;5021331;28;20453;-53
2022/09/22 01:44:31;;;;;;;5.03;4.47;;;11.40;99.90;;;;;;5021407;28;20477;-56
2022/09/22 01:47:05;;;;;;;3.20;2.67;;;11.40;99.90;;;;;;5021015;28;20898;-56
2022/09/22 01:49:35;;;;;;;3.43;2.77;;;11.30;99.90;;;;;;5020696;28;20871;-56
2022/09/22 01:52:09;;;;;;;4.87;2.80;;;11.30;99.90;;;;;;5021162;28;20457;-59
2022/09/22 01:54:44;;;;;;;3.93;3.13;;;11.30;99.90;;;;;;5020871;28;20425;-53
2022/09/22 01:57:16;;;;;;;5.73;3.17;;;11.30;99.90;;;;;;5020551;28;20878;-54
2022/09/22 01:59:47;;;;;;;3.00;2.33;;;11.30;99.90;;;;;;5020959;28;20453;-57
2022/09/22 02:02:22;;;;;;;3.17;2.30;;;11.30;99.90;;;;;;5021543;28;20429;-58
2022/09/22 02:04:54;;;;;;;3.83;2.73;;;11.30;99.90;;;;;;5021758;28;20477;-57
2022/09/22 02:07:24;;;;;;;4.63;2.73;;;11.30;99.90;;;;;;5021009;28;20440;-57
2022/09/22 02:09:53;;;;;;;5.43;3.00;;;11.20;99.90;;;;;;5022244;28;20484;-60
2022/09/22 02:12:19;;;;;;;5.97;3.43;;;11.20;99.90;;;;;;5022471;28;20805;-57
2022/09/22 02:14:47;;;;;;;3.40;2.60;;;11.30;99.90;;;;;;5022398;28;20437;-58
2022/09/22 02:17:16;;;;;;;8.63;2.83;;;11.30;99.90;;;;;;5022565;28;20460;-63
2022/09/22 02:19:43;;;;;;;5.23;3.00;;;11.30;99.90;;;;;;5021907;28;20453;-56
2022/09/22 02:22:11;;;;;;;5.57;2.90;;;11.30;99.90;;;;;;5021500;28;20473;-55
2022/09/22 02:24:40;;;;;;;2.90;1.87;;;11.30;99.90;;;;;;5020970;28;20495;-57
2022/09/22 02:27:12;;;;;;;4.23;2.77;;;11.30;99.90;;;;;;5021663;28;20472;-57
2022/09/22 02:29:44;;;;;;;5.30;2.77;;;11.30;99.90;;;;;;5021008;28;20433;-57
2022/09/22 02:32:14;;;;;;;4.07;2.57;;;11.30;99.90;;;;;;5020318;28;20439;-56
2022/09/22 02:34:44;;;;;;;2.83;2.50;;;11.20;99.90;;;;;;5020624;28;20564;-57
2022/09/22 02:37:21;;;;;;;3.40;2.30;;;11.20;99.90;;;;;;5020514;28;20465;-56
2022/09/22 02:40:00;;;;;;;2.33;2.10;;;11.20;99.90;;;;;;5020524;28;20791;-57
2022/09/22 02:42:30;;;;;;;5.10;2.40;;;11.10;99.90;;;;;;5019978;28;20933;-57
2022/09/22 02:45:05;;;;;;;4.13;2.37;;;11.10;99.90;;;;;;5020105;28;20494;-55
2022/09/22 02:47:36;;;;;;;3.00;2.60;;;11.10;99.90;;;;;;5020593;28;20456;-57
2022/09/22 02:50:09;;;;;;;6.77;2.90;;;11.10;99.90;;;;;;5020190;28;20456;-56
2022/09/22 02:52:37;;;;;;;3.83;2.40;;;11.10;99.90;;;;;;5020054;28;20993;-52
2022/09/22 02:55:05;;;;;;;3.33;2.43;;;11.10;99.90;;;;;;5021394;28;20574;-61
2022/09/22 02:57:32;;;;;;;2.90;2.37;;;11.10;99.90;;;;;;5022420;28;20449;-61
2022/09/22 02:59:59;;;;;;;5.17;2.50;;;11.10;99.90;;;;;;5021724;28;20429;-61
2022/09/22 03:02:26;;;;;;;3.07;2.00;;;11.10;99.90;;;;;;5021620;28;20459;-61
2022/09/22 03:04:52;;;;;;;9.33;2.50;;;11.00;99.90;;;;;;5021962;28;20481;-60
2022/09/22 03:07:20;;;;;;;2.13;1.80;;;11.00;99.90;;;;;;5022298;28;20467;-60
2022/09/22 03:09:47;;;;;;;1.77;1.60;;;11.00;99.90;;;;;;5022062;28;20483;-62
2022/09/22 03:12:14;;;;;;;2.50;2.10;;;10.90;99.90;;;;;;5023194;28;20433;-61
2022/09/22 03:14:41;;;;;;;6.17;2.30;;;10.90;99.90;;;;;;5018649;28;20452;-62
2022/09/22 03:17:07;;;;;;;4.00;2.00;;;10.80;99.90;;;;;;5017700;28;20487;-59
2022/09/22 03:19:34;;;;;;;3.93;2.40;;;10.80;99.90;;;;;;5017355;28;20441;-58
2022/09/22 03:22:01;;;;;;;5.67;2.50;;;10.80;99.90;;;;;;5017814;28;20488;-58
2022/09/22 03:24:29;;;;;;;4.37;2.20;;;10.70;99.90;;;;;;5017697;28;20484;-60
2022/09/22 03:26:56;;;;;;;2.80;2.10;;;10.70;99.90;;;;;;5018194;28;20459;-59
2022/09/22 03:29:23;;;;;;;3.63;2.33;;;10.70;99.90;;;;;;5017666;28;20440;-60
2022/09/22 03:31:49;;;;;;;2.30;2.10;;;10.60;99.90;;;;;;5017853;28;20457;-60
2022/09/22 03:34:16;;;;;;;3.27;1.77;;;10.60;99.90;;;;;;5018033;28;20469;-59
2022/09/22 03:36:43;;;;;;;4.47;3.17;;;10.50;99.90;;;;;;5018115;28;20463;-60
2022/09/22 03:39:10;;;;;;;4.10;2.70;;;10.50;99.90;;;;;;5021130;28;20536;-59
2022/09/22 03:41:39;;;;;;;7.63;2.90;;;10.50;99.90;;;;;;5017948;28;20748;-57
2022/09/22 03:44:06;;;;;;;6.53;2.70;;;10.40;99.90;;;;;;5017604;28;20806;-59
2022/09/22 03:46:33;;;;;;;2.90;2.20;;;10.50;99.90;;;;;;5017418;28;20489;-60
2022/09/22 03:49:02;;;;;;;3.43;2.30;;;10.40;99.90;;;;;;5018029;28;20441;-60
2022/09/22 03:51:28;;;;;;;3.57;2.60;;;10.40;99.90;;;;;;5017618;28;20453;-59
2022/09/22 03:53:55;;;;;;;2.80;2.53;;;10.40;99.90;;;;;;5017467;28;20527;-57
2022/09/22 03:56:22;;;;;;;2.93;2.43;;;10.30;99.90;;;;;;5021464;28;20448;-61
2022/09/22 03:58:50;;;;;;;7.60;3.17;;;10.40;99.90;;;;;;5017648;28;20474;-58
2022/09/22 04:01:17;;;;;;;3.17;2.23;;;10.30;99.90;;;;;;5017563;28;20453;-57
2022/09/22 04:03:44;;;;;;;5.77;5.00;;;10.30;99.90;;;;;;5017002;28;20984;-55
2022/09/22 04:06:11;;;;;;;4.60;2.47;;;10.30;99.90;;;;;;5017537;28;20495;-60
2022/09/22 04:08:38;;;;;;;3.97;2.33;;;10.30;99.90;;;;;;5017427;28;20444;-59
2022/09/22 04:11:05;;;;;;;2.87;2.47;;;10.30;99.90;;;;;;5017411;28;20984;-62
2022/09/22 04:13:34;;;;;;;5.03;2.80;;;10.30;99.90;;;;;;5017539;28;20465;-60
2022/09/22 04:16:02;;;;;;;4.73;2.57;;;10.30;99.90;;;;;;5019136;28;20449;-59
2022/09/22 04:18:29;;;;;;;4.10;2.93;;;10.20;99.90;;;;;;5018716;28;20763;-59
2022/09/22 04:20:57;;;;;;;2.87;2.40;;;10.20;99.90;;;;;;5017287;28;20449;-60
2022/09/22 04:23:25;;;;;;;3.93;2.10;;;10.20;99.90;;;;;;5017591;28;20852;-57
2022/09/22 04:25:52;;;;;;;2.37;2.00;;;10.20;99.90;;;;;;5017822;28;20495;-59
2022/09/22 04:28:19;;;;;;;2.17;1.97;;;10.20;99.90;;;;;;5018002;28;20456;-64
2022/09/22 04:30:47;;;;;;;3.70;2.20;;;10.20;99.90;;;;;;5021781;28;20451;-58
2022/09/22 04:33:15;;;;;;;5.73;2.43;;;10.20;99.90;;;;;;5023608;28;20448;-58
2022/09/22 04:35:42;;;;;;;7.13;2.47;;;10.20;99.90;;;;;;5021882;28;20465;-59
2022/09/22 04:38:09;;;;;;;3.67;3.10;;;10.20;99.90;;;;;;5021055;28;21106;-60
2022/09/22 04:40:36;;;;;;;3.77;2.20;;;10.20;99.90;;;;;;5021276;28;20455;-61
2022/09/22 04:43:03;;;;;;;4.53;2.87;;;10.20;99.90;;;;;;5021098;28;20446;-59
2022/09/22 04:45:30;;;;;;;3.17;2.57;;;10.20;99.90;;;;;;5021122;28;20495;-59
2022/09/22 04:47:57;;;;;;;4.77;2.67;;;10.10;99.90;;;;;;5021217;28;20484;-59
2022/09/22 04:50:26;;;;;;;4.73;2.63;;;10.10;99.90;;;;;;5021265;28;20451;-58
2022/09/22 04:52:56;;;;;;;6.53;2.70;;;10.10;99.90;;;;;;5020896;28;20515;-60
2022/09/22 04:55:24;;;;;;;5.03;3.00;;;10.10;99.90;;;;;;5021353;28;20421;-60
2022/09/22 04:57:51;;;;;;;4.77;3.27;;;10.10;99.90;;;;;;5021001;28;20449;-59
2022/09/22 05:00:19;;;;;;;4.07;2.90;;;10.00;99.90;;;;;;5022661;28;20472;-61
2022/09/22 05:02:46;;;;;;;3.07;2.20;;;10.00;99.90;;;;;;5024405;28;20457;-58
2022/09/22 05:05:13;;;;;;;3.73;2.57;;;10.10;99.90;;;;;;5025243;28;20845;-59
2022/09/22 05:07:44;;;;;;;4.20;2.97;;;10.10;99.90;;;;;;5026914;28;20428;-59
2022/09/22 05:10:12;;;;;;;3.87;2.70;;;10.10;99.90;;;;;;5026774;28;20441;-62
2022/09/22 05:12:39;;;;;;;3.17;2.63;;;10.00;99.90;;;;;;5023214;28;20469;-60
2022/09/22 05:15:07;;;;;;;6.90;3.00;;;10.00;99.90;;;;;;5020972;28;20934;-54
2022/09/22 05:17:35;;;;;;;3.70;2.33;;;10.00;99.90;;;;;;5020583;28;20516;-58
2022/09/22 05:20:05;;;;;;;4.30;2.83;;;10.00;99.90;;;;;;5020983;28;20460;-59
2022/09/22 05:22:38;;;;;;;8.33;3.40;;;10.00;99.90;;;;;;5023417;28;20807;-59
2022/09/22 05:25:08;;;;;;;8.03;2.50;;;10.00;99.90;;;;;;5020292;28;20476;-59
2022/09/22 05:27:42;;;;;;;5.77;3.23;;;9.90;99.90;;;;;;5021194;28;20840;-58
2022/09/22 05:30:20;;;;;;;3.60;2.67;;;9.90;99.90;;;;;;5020562;28;20464;-59
2022/09/22 05:32:52;;;;;;;5.93;2.70;;;10.00;99.90;;;;;;5020497;28;20516;-59
2022/09/22 05:35:25;;;;;;;7.40;3.00;;;10.00;99.90;;;;;;5020599;28;20808;-57
2022/09/22 05:37:54;;;;;;;8.30;3.10;;;10.00;99.90;;;;;;5020301;28;20545;-59
2022/09/22 05:40:27;;;;;;;5.13;3.37;;;10.00;99.90;;;;;;5020359;28;20954;-58
2022/09/22 05:42:54;;;;;;;4.40;3.07;;;10.10;99.90;;;;;;5020456;28;20437;-61
2022/09/22 05:45:24;;;;;;;4.80;2.90;;;10.10;99.90;;;;;;5020050;28;20495;-58
2022/09/22 05:47:55;;;;;;;5.67;3.03;;;10.10;99.90;;;;;;5019962;28;20770;-58
2022/09/22 05:50:22;;;;;;;7.80;3.57;;;10.20;99.90;;;;;;5020257;28;20517;-59
2022/09/22 05:52:49;;;;;;;6.37;3.30;;;10.20;99.90;;;;;;5019914;28;20496;-58
2022/09/22 05:55:17;;;;;;;4.10;3.00;;;10.30;99.90;;;;;;5019618;28;20528;-59
2022/09/22 05:57:45;;;;;;;9.33;2.90;;;10.50;99.90;;;;;;5022743;28;20452;-61
2022/09/22 06:00:12;;;;;;;4.80;3.47;;;10.60;99.90;;;;;;5019751;28;20610;-55
2022/09/22 06:02:39;;;;;;;3.10;2.27;;;10.70;99.90;;;;;;5019471;28;20946;-58
2022/09/22 06:05:07;;;;;;;4.60;2.90;;;10.90;99.90;;;;;;5019708;28;20548;-59
2022/09/22 06:07:34;;;;;;;3.83;2.60;;;11.00;99.90;;;;;;5019328;28;20699;-59
2022/09/22 06:10:00;;;;;;;6.73;2.90;;;11.00;99.90;;;;;;5019580;28;20471;-53
2022/09/22 06:12:28;;;;;;;3.03;2.73;;;11.00;99.90;;;;;;5019139;28;20453;-58
2022/09/22 06:14:56;;;;;;;3.30;2.70;;;11.00;99.90;;;;;;5019569;28;20841;-59
2022/09/22 06:17:23;;;;;;;5.50;3.27;;;10.90;99.90;;;;;;5018958;28;20483;-60
2022/09/22 06:19:50;;;;;;;9.00;3.40;;;10.90;99.90;;;;;;5019004;28;20469;-59
2022/09/22 06:22:17;;;;;;;5.30;3.50;;;10.90;99.90;;;;;;5026754;28;20544;-55
2022/09/22 06:24:44;;;;;;;5.00;3.10;;;10.90;99.90;;;;;;5030173;28;20465;-59
2022/09/22 06:27:11;;;;;;;5.60;3.23;;;11.00;99.90;;;;;;5033237;28;20548;-60
2022/09/22 06:29:41;;;;;;;5.90;3.57;;;11.00;99.90;;;;;;5031166;28;20491;-59
2022/09/22 06:32:09;;;;;;;6.87;2.93;;;11.00;99.90;;;;;;5030309;28;20845;-57
2022/09/22 06:34:37;;;;;;;4.00;2.80;;;11.00;99.90;;;;;;5039956;28;20918;-60
2022/09/22 06:37:06;;;;;;;5.00;2.97;;;11.10;99.90;;;;;;5035710;28;20455;-59
2022/09/22 06:39:34;;;;;;;4.27;2.93;;;11.10;99.90;;;;;;5040013;28;20748;-57
2022/09/22 06:42:01;;;;;;;7.00;2.90;;;11.20;99.90;;;;;;5025052;28;20468;-60
2022/09/22 06:44:29;;;;;;;5.70;2.60;;;11.20;99.90;;;;;;5031198;28;20448;-60
2022/09/22 06:46:55;;;;;;;4.47;2.87;;;11.30;99.90;;;;;;5038005;28;20793;-60
2022/09/22 06:49:24;;;;;;;4.33;2.33;;;11.40;99.90;;;;;;5038027;28;20536;-61
2022/09/22 06:51:51;;;;;;;4.17;2.30;;;11.50;99.90;;;;;;5040090;28;20472;-56
2022/09/22 06:54:18;;;;;;;5.70;3.27;;;11.50;99.90;;;;;;5039549;28;20448;-57
2022/09/22 06:56:45;;;;;;;4.27;2.57;;;11.60;99.90;;;;;;5041708;28;20455;-65
2022/09/22 06:59:13;;;;;;;2.83;2.30;;;11.70;99.90;;;;;;5039282;28;20452;-59
2022/09/22 07:01:41;;;;;;;3.80;3.50;;;11.80;99.90;;;;;;5027717;28;20441;-59
2022/09/22 07:04:09;;;;;;;3.20;2.63;;;11.80;99.90;;;;;;5029267;28;20452;-57
2022/09/22 07:06:38;;;;;;;3.30;2.27;;;11.90;99.90;;;;;;5025445;28;20488;-58
2022/09/22 07:09:07;;;;;;;3.63;2.50;;;11.90;99.90;;;;;;5028798;28;20460;-59
2022/09/22 07:11:34;;;;;;;3.83;2.57;;;12.00;99.90;;;;;;5030940;28;20528;-58
2022/09/22 07:14:01;;;;;;;3.20;2.00;;;12.10;99.90;;;;;;5029015;28;20548;-57
2022/09/22 07:16:28;;;;;;;9.23;2.93;;;12.10;99.90;;;;;;5023558;28;20914;-55
2022/09/22 07:18:57;;;;;;;2.40;2.10;;;12.10;99.90;;;;;;5036206;28;20452;-57
2022/09/22 07:21:26;;;;;;;2.67;2.10;;;12.20;99.90;;;;;;5040666;28;20898;-59
2022/09/22 07:23:56;;;;;;;2.50;1.80;;;12.20;99.90;;;;;;5031418;28;20503;-51
2022/09/22 07:26:27;;;;;;;4.47;1.70;;;12.40;99.90;;;;;;5042237;28;20535;-60
2022/09/22 07:28:58;;;;;;;3.20;2.60;;;12.50;99.90;;;;;;5050932;28;20443;-55
2022/09/22 07:31:25;;;;;;;2.00;1.60;;;12.50;99.90;;;;;;5034477;28;20460;-59
2022/09/22 07:33:54;;;;;;;1.93;1.63;;;12.60;99.90;;;;;;5019593;28;20457;-59
2022/09/22 07:36:25;;;;;;;3.10;2.27;;;12.60;99.90;;;;;;5018597;28;20503;-59
2022/09/22 07:38:56;;;;;;;3.10;1.80;;;12.70;99.90;;;;;;5025876;28;20444;-58
2022/09/22 07:41:26;;;;;;;2.30;1.70;;;12.80;99.90;;;;;;5025540;28;20482;-59
2022/09/22 07:43:55;;;;;;;4.40;1.90;;;12.90;99.90;;;;;;5029142;28;20453;-59
2022/09/22 07:46:22;;;;;;;2.83;1.90;;;12.90;99.90;;;;;;5018316;28;20491;-58
2022/09/22 07:48:49;;;;;;;7.07;1.97;;;13.00;99.90;;;;;;5019175;28;20524;-60
2022/09/22 07:51:19;;;;;;;1.80;1.63;;;13.10;99.90;;;;;;5022819;28;20544;-57
2022/09/22 07:53:48;;;;;;;2.63;2.33;;;13.10;99.90;;;;;;5021828;28;20430;-54
2022/09/22 07:56:19;;;;;;;3.73;1.63;;;13.20;99.90;;;;;;5021807;28;20445;-60
2022/09/22 07:58:49;;;;;;;1.70;1.60;;;13.30;99.90;;;;;;5023281;28;20433;-62
2022/09/22 08:01:16;;;;;;;2.20;1.80;;;13.30;99.90;;;;;;5024307;28;20464;-61
2022/09/22 08:03:45;;;;;;;2.47;1.23;;;13.60;99.90;;;;;;5019691;28;20464;-53
2022/09/22 08:06:12;;;;;;;1.80;1.37;;;13.60;99.90;;;;;;5017094;28;20783;-50
2022/09/22 08:08:41;;;;;;;2.20;1.27;;;13.90;99.90;;;;;;5017369;28;20468;-49
2022/09/22 08:11:10;;;;;;;5.53;1.67;;;14.30;99.90;;;;;;5017625;28;20457;-53
2022/09/22 08:13:38;;;;;;;2.60;1.60;;;14.50;99.90;;;;;;5017112;28;20449;-53
2022/09/22 08:16:06;;;;;;;1.73;1.23;;;14.60;99.90;;;;;;5017660;28;20449;-52
2022/09/22 08:18:34;;;;;;;2.23;1.50;;;14.80;99.90;;;;;;5016001;28;20471;-54
2022/09/22 08:21:02;;;;;;;1.50;1.30;;;16.20;99.90;;;;;;5016350;28;20950;-51
2022/09/22 08:23:30;;;;;;;4.70;1.47;;;18.20;99.90;;;;;;5015546;28;20548;-53
2022/09/22 08:25:57;;;;;;;1.70;1.40;;;20.70;99.90;;;;;;5017070;28;20817;-55
2022/09/22 08:28:24;;;;;;;1.30;1.10;;;23.00;99.90;;;;;;5014742;28;20452;-53
2022/09/22 08:30:52;;;;;;;1.80;1.40;;;25.00;96.00;;;;;;5014556;28;20434;-47
2022/09/22 08:33:18;;;;;;;1.50;1.40;;;26.30;79.60;;;;;;5016313;28;20445;-55
2022/09/22 08:35:53;;;;;;;1.60;1.10;;;26.90;72.30;;;;;;5016071;28;20437;-54
2022/09/22 08:38:22;;;;;;;2.30;1.00;;;28.00;65.50;;;;;;5014790;28;20451;-51
2022/09/22 08:41:01;;;;;;;2.03;1.63;;;28.40;60.00;;;;;;5014795;28;20484;-55
2022/09/22 08:43:31;;;;;;;1.40;1.10;;;29.10;58.70;;;;;;5014879;28;20477;-55
2022/09/22 08:46:01;;;;;;;3.47;1.83;;;29.90;55.40;;;;;;5014897;28;20472;-53
2022/09/22 08:54:05;;;;;;;1.60;1.23;;;30.60;50.70;;;;;;5014412;28;20918;-54
2022/09/22 08:56:36;;;;;;;1.40;1.30;;;30.70;49.50;;;;;;5014369;28;20421;-54
2022/09/22 08:59:09;;;;;;;1.57;1.10;;;30.20;48.90;;;;;;5014691;28;20457;-52
2022/09/22 09:02:08;;;;;;;1.57;1.30;;;30.20;48.30;;;;;;5014763;28;20433;-56
2022/09/22 09:04:59;;;;;;;1.30;1.00;;;30.10;48.40;;;;;;5017258;28;20449;-53
2022/09/22 09:07:34;;;;;;;3.47;1.03;;;29.70;48.20;;;;;;5011802;28;20965;-52
2022/09/22 09:10:08;;;;;;;3.00;1.43;;;29.30;48.70;;;;;;5014482;28;20451;-55
2022/09/22 09:13:10;;;;;;;2.60;1.23;;;28.80;49.50;;;;;;5014314;28;20429;-54
2022/09/22 09:15:53;;;;;;;1.77;1.03;;;28.90;48.80;;;;;;5014284;28;20455;-50
2022/09/22 09:18:32;;;;;;;1.50;1.10;;;28.60;48.40;;;;;;5017328;28;20894;-55
2022/09/22 09:21:03;;;;;;;5.63;1.73;;;28.20;49.40;;;;;;5017890;28;20882;-54
2022/09/22 09:23:39;;;;;;;1.30;1.00;;;27.00;51.60;;;;;;5018536;28;20563;-50
2022/09/22 09:26:06;;;;;;;2.03;1.40;;;25.60;53.20;;;;;;5018512;28;20555;-54
2022/09/22 09:28:38;;;;;;;2.83;1.30;;;24.10;55.10;;;;;;5018487;28;20558;-54
2022/09/22 09:31:12;;;;;;;1.10;0.97;;;23.00;58.00;;;;;;5019879;28;20445;-50
2022/09/22 09:33:48;;;;;;;1.83;1.13;;;22.30;60.80;;;;;;5022201;28;20523;-54
2022/09/22 09:36:19;;;;;;;2.53;1.70;;;22.60;59.40;;;;;;5019121;28;20960;-53
2022/09/22 09:38:51;;;;;;;1.93;1.10;;;23.10;58.20;;;;;;5018456;28;20453;-53
2022/09/22 09:41:22;;;;;;;1.70;1.20;;;23.30;58.40;;;;;;5018258;28;20969;-54
2022/09/22 09:43:53;;;;;;;1.73;1.27;;;24.00;57.50;;;;;;5017982;28;20476;-58
2022/09/22 09:46:31;;;;;;;1.70;1.10;;;25.00;56.00;;;;;;5016858;28;20504;-50
2022/09/22 09:49:05;;;;;;;1.30;1.03;;;25.90;54.60;;;;;;5037289;28;20502;-55
2022/09/22 09:51:35;;;;;;;1.83;1.73;;;26.80;53.70;;;;;;5037202;28;20808;-54
2022/09/22 09:54:05;;;;;;;2.07;0.90;;;27.20;51.90;;;;;;5037245;28;20819;-53
2022/09/22 09:56:35;;;;;;;1.30;1.03;;;27.20;50.80;;;;;;5037313;28;20508;-51
2022/09/22 10:01:53;;;;;;;1.10;0.90;;;27.60;48.60;;;;;;5038776;28;20777;-49
2022/09/22 10:04:34;;;;;;;1.33;0.90;;;27.80;48.70;;;;;;5037379;28;20436;-48
2022/09/22 10:07:15;;;;;;;1.90;1.07;;;27.70;49.50;;;;;;5037335;28;20463;-53
2022/09/22 10:09:42;;;;;;;1.20;0.80;;;27.70;49.50;;;;;;5037122;28;20436;-51
2022/09/22 10:12:25;;;;;;;1.93;1.20;;;27.40;48.70;;;;;;5036381;28;20460;-53
2022/09/22 10:14:54;;;;;;;2.37;0.97;;;27.20;49.00;;;;;;5036977;28;20928;-56
2022/09/22 10:17:23;;;;;;;1.27;1.07;;;27.30;49.60;;;;;;5037478;28;20844;-53
2022/09/22 10:20:21;;;;;;;1.30;0.97;;;27.30;49.50;;;;;;5036715;28;20472;-52
2022/09/22 10:22:48;;;;;;;1.70;1.60;;;27.30;48.80;;;;;;5037370;28;20459;-54
2022/09/22 10:25:24;;;;;;;1.60;1.50;;;27.50;49.70;;;;;;5037186;28;20537;-52
2022/09/22 10:28:03;;;;;;;2.70;1.43;;;27.40;49.30;;;;;;5038526;28;20574;-54
2022/09/22 10:30:36;;;;;;;104.97;53.23;;;27.50;48.10;;;;;;5038240;28;20454;-55
2022/09/22 10:33:09;;;;;;;29.60;16.53;;;27.60;48.10;;;;;;5037042;28;20774;-51
2022/09/22 10:35:37;;;;;;;15.60;9.20;;;27.40;49.50;;;;;;5037772;28;20428;-52
2022/09/22 10:38:13;;;;;;;147.90;74.87;;;27.40;49.30;;;;;;5037525;28;20763;-52
2022/09/22 10:40:46;;;;;;;13.73;9.60;;;27.00;48.70;;;;;;5037136;28;20454;-48
2022/09/22 10:43:25;;;;;;;107.13;56.20;;;26.70;50.70;;;;;;5038296;28;20472;-52
2022/09/22 10:46:10;;;;;;;34.73;22.67;;;25.90;51.60;;;;;;5038823;28;20507;-53
2022/09/22 10:48:44;;;;;;;3.70;3.30;;;25.10;54.60;;;;;;5038365;28;20456;-55
2022/09/22 10:51:22;;;;;;;1.87;1.40;;;24.80;53.00;;;;;;5038034;28;20432;-50
2022/09/22 10:54:25;;;;;;;2.00;1.30;;;24.50;53.00;;;;;;5038409;28;20546;-53
2022/09/22 10:56:55;;;;;;;1.40;0.93;;;24.40;53.60;;;;;;5037837;28;20435;-55
2022/09/22 10:59:41;;;;;;;1.90;1.20;;;24.30;53.70;;;;;;5036979;28;20515;-53
2022/09/22 11:02:44;;;;;;;1.50;0.97;;;24.20;54.10;;;;;;5038394;28;20444;-58
2022/09/22 11:14:06;;;;;;;2.23;1.70;;;22.90;55.50;;;;;;5037912;28;20411;-55
2022/09/22 11:16:53;;;;;;;1.87;1.27;;;22.60;55.50;;;;;;5038084;28;20877;-56
2022/09/22 11:19:36;;;;;;;1.30;1.00;;;22.30;56.20;;;;;;5038614;28;20779;-59
2022/09/22 11:22:19;;;;;;;1.93;1.57;;;22.10;56.90;;;;;;5038144;28;20439;-58
2022/09/22 11:24:59;;;;;;;1.90;1.40;;;21.80;60.80;;;;;;5021072;28;20433;-59
2022/09/22 11:27:36;;;;;;;1.93;1.40;;;21.60;57.70;;;;;;5018753;28;20464;-58
2022/09/22 11:30:13;;;;;;;1.37;1.03;;;21.40;58.30;;;;;;5018617;28;20433;-60
2022/09/22 11:33:19;;;;;;;3.37;1.30;;;21.20;58.00;;;;;;5018369;28;20429;-57
2022/09/22 11:35:59;;;;;;;1.17;0.80;;;20.90;59.40;;;;;;5018494;28;20568;-59
2022/09/22 11:38:52;;;;;;;1.60;1.10;;;20.70;57.10;;;;;;5018610;28;20429;-58
2022/09/22 11:41:30;;;;;;;1.70;1.10;;;20.30;59.80;;;;;;5018598;28;20429;-58
2022/09/22 11:44:21;;;;;;;2.90;1.30;;;20.10;57.30;;;;;;5018641;28;20477;-59
2022/09/22 11:47:01;;;;;;;2.20;1.40;;;20.10;59.50;;;;;;5010931;28;20484;-57
2022/09/22 11:49:45;;;;;;;1.47;0.93;;;20.10;60.80;;;;;;5020993;28;20747;-59
2022/09/22 11:52:27;;;;;;;1.77;1.10;;;20.10;61.10;;;;;;5030048;28;20478;-58
2022/09/22 11:55:22;;;;;;;3.97;1.00;;;20.00;59.50;;;;;;5023003;28;20496;-56
2022/09/22 11:57:54;;;;;;;1.30;1.10;;;19.90;60.80;;;;;;5018695;28;20493;-52
2022/09/22 12:00:21;;;;;;;1.30;0.90;;;19.80;59.70;;;;;;5018643;28;20438;-58
2022/09/22 12:02:54;;;;;;;1.10;0.93;;;19.80;59.50;;;;;;5018131;28;20464;-58
2022/09/22 12:05:27;;;;;;;1.50;1.10;;;19.80;58.50;;;;;;5018227;28;20436;-58
2022/09/22 12:08:02;;;;;;;3.73;1.63;;;19.70;59.50;;;;;;5018404;28;20469;-59
2022/09/22 12:10:34;;;;;;;1.80;1.10;;;19.60;59.60;;;;;;5018155;28;20777;-58
2022/09/22 12:13:04;;;;;;;1.40;1.07;;;19.60;60.00;;;;;;5017871;28;20925;-59
2022/09/22 12:15:36;;;;;;;1.43;0.90;;;19.60;60.50;;;;;;5018133;28;20445;-58
2022/09/22 12:18:09;;;;;;;7.13;1.80;;;19.60;60.40;;;;;;5018504;28;20461;-57
2022/09/22 12:20:54;;;;;;;5.77;1.50;;;19.60;59.80;;;;;;5029767;28;20466;-58
2022/09/22 12:23:35;;;;;;;4.40;1.63;;;19.60;59.70;;;;;;5020437;28;20484;-59
2022/09/22 12:26:07;;;;;;;1.57;1.13;;;19.70;58.80;;;;;;5024385;28;20473;-58
2022/09/22 12:28:39;;;;;;;1.00;0.90;;;19.80;59.10;;;;;;5024034;28;20480;-56
2022/09/22 12:31:11;;;;;;;3.47;1.50;;;19.90;58.90;;;;;;5027148;28;20526;-59
2022/09/22 12:33:40;;;;;;;1.93;1.40;;;19.90;58.50;;;;;;5027351;28;20477;-59
2022/09/22 12:36:07;;;;;;;1.30;1.17;;;19.90;57.20;;;;;;5017616;28;20970;-58
2022/09/22 12:38:34;;;;;;;1.40;1.20;;;20.00;58.40;;;;;;5019744;28;20421;-58
2022/09/22 12:41:03;;;;;;;1.40;1.07;;;20.10;59.80;;;;;;5037631;28;20919;-55
2022/09/22 12:43:32;;;;;;;3.67;1.10;;;20.00;59.60;;;;;;5038035;28;20876;-57
2022/09/22 12:46:04;;;;;;;11.63;3.00;;;19.90;59.70;;;;;;5036286;28;20951;-57
2022/09/22 12:48:33;;;;;;;1.30;1.10;;;19.90;58.90;;;;;;5037688;28;20980;-59
2022/09/22 12:51:29;;;;;;;3.93;1.30;;;19.90;60.10;;;;;;5038126;28;20448;-58
2022/09/22 12:54:27;;;;;;;8.93;3.20;;;19.80;62.30;;;;;;5041747;28;20464;-59
2022/09/22 12:56:56;;;;;;;2.50;1.50;;;19.60;59.00;;;;;;5038198;28;20444;-58
2022/09/22 12:59:58;;;;;;;1.20;0.80;;;19.60;60.00;;;;;;5040609;28;20464;-58
2022/09/22 13:02:31;;;;;;;1.27;1.07;;;19.60;60.00;;;;;;5041586;28;20447;-58
2022/09/22 13:05:36;;;;;;;3.03;1.20;;;19.60;59.80;;;;;;5041275;28;20428;-59
2022/09/22 13:08:03;;;;;;;3.40;1.17;;;19.70;63.10;;;;;;5041662;28;20480;-59
2022/09/22 13:10:50;;;;;;;3.87;1.23;;;19.90;59.90;;;;;;5041061;28;20436;-59
2022/09/22 13:13:42;;;;;;;1.87;1.00;;;20.10;59.80;;;;;;5041262;28;20452;-54
2022/09/22 13:16:36;;;;;;;1.00;0.80;;;20.30;59.50;;;;;;5042245;28;20440;-57
2022/09/22 13:19:10;;;;;;;1.53;1.10;;;20.50;59.70;;;;;;4996608;28;20534;-57
2022/09/22 13:21:40;;;;;;;2.80;1.90;;;20.60;59.00;;;;;;5042348;28;20443;-59
2022/09/22 13:24:19;;;;;;;1.83;1.10;;;20.60;57.30;;;;;;5041173;28;20468;-59
2022/09/22 13:26:46;;;;;;;4.00;2.03;;;20.60;56.20;;;;;;5041381;28;20964;-55